Airfield :
LOGIN :

Register | Disclaimer

   EN    FR    IT 

 










Legend :    VFR   Marginal VFR   IFR   Intensive IFR   Very Intensive IFR
Visi :
Ceiling :
>= 8 km
>= 3000ft
5 to 8 km
1000 to 3000 ft
1500m to 5 km
500 to 1000 ft
800 to 1500m
200 to 500 ft
< 800m
< 200 ft
Symbols :   Thunderstorms  Fog  Heavy snow  Heavy precipitations  Wind > 20 kt
SIGMETs :     Misc.  Thunderstorms  Icing  Turbulence  Mountain Waves  Volcanic Ashes






- Airport Elevation : 49 ft
- IATA code : GLZ


EHGR - Gilze-Rijen Airbase

CURRENT METAR :
  • 131017Z AUTO 24009KT 210V270 5000 DZ FEW009 SCT017 BKN024 15/14 Q1012 WHT

EXPIRED METARs :
  • 130951Z AUTO 22009KT 190V270 9999 FEW006 SCT009 BKN010 15/14 Q1012 GRN
  • 130955Z AUTO 22010KT 190V270 9999 FEW007 SCT009 BKN029 15/14 Q1012 REDZ BLU
  • 130933Z AUTO 22010KT 190V260 9999 -RADZ FEW007 SCT013 BKN024 14/14 Q1012 WHT
  • 130919Z AUTO 22009KT 180V280 4800 +DZ FEW007 BKN016 BKN022 15/14 Q1012 GRN
  • 130901Z AUTO 24007KT 190V290 9999 DZ FEW005 BKN006 BKN010 14/14 Q1012 YLO
  • 130855Z AUTO 26009KT 230V300 9999 DZ FEW006 BKN012 BKN014 14/13 Q1012 GRN
  • 130844Z AUTO 27010KT 210V320 4400 +DZ FEW009 SCT012 BKN016 15/14 Q1011 GRN
  • 130838Z AUTO 26010KT 210V320 5000 DZRA FEW008 SCT016 BKN023 15/14 Q1011 WHT
  • 130825Z AUTO 25009KT 220V290 9999 FEW011 BKN017 BKN021 14/14 Q1011 WHT
  • 130755Z AUTO 23008KT 190V270 9999 -RADZ SCT006 BKN008 BKN010 15/14 Q1011 GRN
  • 130805Z AUTO 24010KT 200V270 9999 FEW006 SCT012 BKN015 15/14 Q1011 WHT
  • 130736Z AUTO 23008KT 200V260 9999 FEW005 SCT007 BKN008 15/14 Q1011 GRN
  • 130725Z AUTO 24007KT 200V270 9999 FEW005 SCT006 BKN007 15/14 Q1011 REDZ GRN
  • 130709Z AUTO 23008KT 180V270 9999 DZ SCT005 BKN006 BKN008 14/14 Q1011 YLO
  • 130655Z AUTO 23007KT 200V280 9999 DZ SCT004 BKN006 OVC007 14/13 Q1011 YLO
  • 130625Z AUTO 23008KT 200V270 6000 DZ SCT005 BKN006 FEW015CB 14/13 Q1011 YLO
  • 130559Z AUTO 23008KT 190V260 6000 DZ FEW004 BKN006 BKN008 FEW015CB 14/13 Q1011 YLO
  • 130545Z AUTO 22009KT 180V260 6000 DZ FEW005 BKN007 BKN008 FEW015CB 14/13 Q1011 GRN
  • 130533Z AUTO 22010KT 190V260 5000 DZRA FEW006 SCT007 BKN009 13/13 Q1011 GRN
  • 130525Z AUTO 22010KT 180V260 8000 BR FEW007 SCT009 BKN010 14/13 Q1011 GRN

Expired Forecast.



MET'MAP, your aeronautical weather chart ! - Copyright ORBIFLY December 2007 - Disclaimer

ORBIFLY MET'MAP TEAM :

Programming & Development : Alexandra Zaïnal
Original concept : Baudouin d'Aumeries
Technical & hardware support : Manuel Goepfert
Assistance : Marc-Olivier Méhu




SOURCES & CREDITS :

   NOAA